EPWR/WRO METAR and TAF weather

Enter ICAO airport designator
Station Type Date Time Source
EPWR METAR 2019/12/12 12:00 UTC NOAA

EPWR 121200Z 20005KT 160V250 CAVOK 03/M03 Q1005


Station Type Date Time Source
EPWR Decoded METAR 2019/12/12 12:00 UTC NOAA

Wroclaw Ii, Poland (EPWR) 51-06N 016-53E 121M
Dec 12, 2019 - 07:00 AM EST / 2019.12.12 1200 UTC
Wind: from the SSW (200 degrees) at 6 MPH (5 KT) (direction variable):0
Visibility: greater than 7 mile(s):0
Temperature: 37 F (3 C)
Dew Point: 26 F (-3 C)
Relative Humidity: 64%
Pressure (altimeter): 29.68 in. Hg (1005 hPa)
ob: EPWR 121200Z 20005KT 160V250 CAVOK 03/M03 Q1005
cycle: 12

Station Type Date Time Source
EPWR TAF 2019/12/12 12:33 UTC NOAA

TAF EPWR 121130Z 1212/1312 15006KT CAVOK
BECMG 1222/1224 BKN012
TEMPO 1306/1312 14015G28KT

Example: see airport list